Time;durP1;ratioP1;P1;durP2;ratioP2;P2;SDS_P1;SDS_P2;PMS_P1;PMS_P2;Temp;Humidity;BMP_temperature;BMP_pressure;BME280_temperature;BME280_humidity;BME280_pressure;Samples;Min_cycle;Max_cycle;Signal;HPM_P1;HPM_P2
2023/05/12 00:00:16;;;;;;;0.80;0.80;;;18.90;65.80;;;;;;4957878;28;20289;-66
2023/05/12 00:02:44;;;;;;;1.05;0.80;;;19.00;65.90;;;;;;4957540;28;20209;-67
2023/05/12 00:05:10;;;;;;;0.80;0.80;;;18.90;65.80;;;;;;4956982;28;20697;-67
2023/05/12 00:07:36;;;;;;;0.70;0.70;;;18.90;65.80;;;;;;4957551;28;20184;-67
2023/05/12 00:10:02;;;;;;;0.98;0.90;;;18.90;65.80;;;;;;4957462;28;20224;-67
2023/05/12 00:12:28;;;;;;;0.75;0.75;;;18.90;65.70;;;;;;4957597;28;20221;-68
2023/05/12 00:14:54;;;;;;;0.75;0.75;;;18.90;65.80;;;;;;4956920;28;20264;-67
2023/05/12 00:17:20;;;;;;;0.90;0.90;;;18.90;65.80;;;;;;4957118;28;20198;-67
2023/05/12 00:19:47;;;;;;;0.70;0.70;;;18.90;65.80;;;;;;4970257;28;20190;-67
2023/05/12 00:22:13;;;;;;;0.90;0.90;;;18.90;65.80;;;;;;4937840;29;20191;-67
2023/05/12 00:24:39;;;;;;;0.70;0.70;;;18.90;65.70;;;;;;4956103;28;20199;-67
2023/05/12 00:27:06;;;;;;;1.15;0.85;;;18.90;65.80;;;;;;4989253;28;20201;-67
2023/05/12 00:29:33;;;;;;;0.57;0.57;;;19.00;65.80;;;;;;4972818;28;20197;-67
2023/05/12 00:31:59;;;;;;;0.75;0.75;;;18.90;65.80;;;;;;4957356;28;20217;-67
2023/05/12 00:34:26;;;;;;;0.80;0.80;;;18.90;65.80;;;;;;4956588;28;20253;-68
2023/05/12 00:36:52;;;;;;;0.95;0.95;;;18.90;65.80;;;;;;4956587;28;20243;-66
2023/05/12 00:39:17;;;;;;;1.15;0.95;;;18.90;65.80;;;;;;4956648;28;20197;-67
2023/05/12 00:41:43;;;;;;;0.90;0.90;;;18.90;65.70;;;;;;4972559;28;20185;-66
2023/05/12 00:44:09;;;;;;;1.27;0.90;;;18.90;65.70;;;;;;4956311;28;20289;-68
2023/05/12 00:46:35;;;;;;;1.13;0.65;;;18.90;65.70;;;;;;4956402;28;20212;-68
2023/05/12 00:49:02;;;;;;;0.80;0.80;;;18.90;65.80;;;;;;4956651;28;20257;-67
2023/05/12 00:51:27;;;;;;;1.17;0.80;;;18.90;65.80;;;;;;4956688;28;20258;-67
2023/05/12 00:53:55;;;;;;;1.00;1.00;;;18.90;65.80;;;;;;4956600;28;20213;-67
2023/05/12 00:56:22;;;;;;;0.80;0.80;;;18.90;65.70;;;;;;4956077;28;20228;-67
2023/05/12 00:58:48;;;;;;;1.00;0.80;;;18.90;65.90;;;;;;4972823;28;20174;-67
2023/05/12 01:01:15;;;;;;;0.80;0.80;;;18.90;65.80;;;;;;4969298;28;20217;-67
2023/05/12 01:03:42;;;;;;;0.82;0.77;;;18.90;65.80;;;;;;4954343;29;20190;-67
2023/05/12 01:06:40;;;;;;;1.02;1.00;;;18.90;65.80;;;;;;4949514;28;20213;-67
2023/05/12 01:09:08;;;;;;;1.20;1.10;;;18.90;65.80;;;;;;4956342;28;20645;-66
2023/05/12 01:11:34;;;;;;;0.60;0.60;;;18.90;65.80;;;;;;4972140;28;20636;-67
2023/05/12 01:14:00;;;;;;;1.00;1.00;;;18.90;66.50;;;;;;4972390;28;20217;-68
2023/05/12 01:16:36;;;;;;;0.88;0.88;;;18.90;65.80;;;;;;4939848;28;20292;-67
2023/05/12 01:19:09;;;;;;;1.00;0.90;;;18.90;65.80;;;;;;4988536;28;20188;-67
2023/05/12 01:21:35;;;;;;;1.35;0.80;;;18.90;65.70;;;;;;4940263;28;20673;-66
2023/05/12 01:24:07;;;;;;;0.68;0.68;;;18.90;65.70;;;;;;4940330;28;20212;-67
2023/05/12 01:26:33;;;;;;;0.98;0.70;;;18.90;65.80;;;;;;4956085;28;20205;-67
2023/05/12 01:29:02;;;;;;;0.90;0.90;;;18.90;65.80;;;;;;4940149;28;20203;-68
2023/05/12 01:31:29;;;;;;;0.82;0.80;;;18.90;65.80;;;;;;4972253;28;20189;-67
2023/05/12 01:33:56;;;;;;;1.05;0.95;;;18.90;65.80;;;;;;4955970;28;20217;-67
2023/05/12 01:36:22;;;;;;;0.70;0.70;;;18.90;65.80;;;;;;4956187;28;20202;-68
2023/05/12 01:38:48;;;;;;;1.13;1.08;;;18.90;66.50;;;;;;4956567;28;20204;-68
2023/05/12 01:41:15;;;;;;;2.53;1.20;;;18.90;65.80;;;;;;4956306;28;20190;-67
2023/05/12 01:43:41;;;;;;;1.20;1.10;;;18.90;65.70;;;;;;4956175;28;20194;-67
2023/05/12 01:46:09;;;;;;;0.85;0.70;;;18.90;65.80;;;;;;4972979;28;20217;-68
2023/05/12 01:48:35;;;;;;;0.88;0.88;;;18.90;65.80;;;;;;4940094;28;20280;-67
2023/05/12 01:51:01;;;;;;;1.15;1.00;;;18.90;65.80;;;;;;4956003;28;20189;-67
2023/05/12 01:53:27;;;;;;;0.90;0.90;;;18.90;65.80;;;;;;4955880;28;20193;-67
2023/05/12 01:55:53;;;;;;;0.90;0.90;;;18.90;65.80;;;;;;4955856;28;20232;-67
2023/05/12 01:58:20;;;;;;;0.80;0.80;;;18.90;65.80;;;;;;4956249;28;20196;-68
2023/05/12 02:00:45;;;;;;;0.93;0.93;;;18.90;65.70;;;;;;4955860;28;20193;-67
2023/05/12 02:03:15;;;;;;;0.85;0.85;;;18.90;65.70;;;;;;4955692;28;20198;-67
2023/05/12 02:05:41;;;;;;;1.40;1.30;;;18.90;65.80;;;;;;4971592;28;20213;-68
2023/05/12 02:08:06;;;;;;;1.05;0.98;;;18.90;65.70;;;;;;4955967;28;20200;-67
2023/05/12 02:10:32;;;;;;;0.88;0.88;;;18.90;65.80;;;;;;4955754;28;20196;-66
2023/05/12 02:12:58;;;;;;;0.60;0.60;;;18.90;65.80;;;;;;4955514;28;20189;-67
2023/05/12 02:15:25;;;;;;;1.02;1.00;;;18.90;65.80;;;;;;4963319;28;20218;-67
2023/05/12 02:17:53;;;;;;;1.00;0.90;;;18.90;65.80;;;;;;4955753;28;20235;-67
2023/05/12 02:20:19;;;;;;;0.98;0.98;;;18.90;65.70;;;;;;4955575;28;20186;-67
2023/05/12 02:22:45;;;;;;;1.00;1.00;;;18.90;65.80;;;;;;4939488;28;20196;-67
2023/05/12 02:25:11;;;;;;;0.90;0.90;;;18.90;65.80;;;;;;4971578;28;20285;-66
2023/05/12 02:27:37;;;;;;;0.82;0.82;;;18.90;65.80;;;;;;4955633;28;20213;-67
2023/05/12 02:30:04;;;;;;;1.02;1.00;;;18.80;65.60;;;;;;4942762;28;20197;-68
2023/05/12 02:32:31;;;;;;;0.88;0.88;;;18.90;65.80;;;;;;4962749;28;20193;-67
2023/05/12 02:34:57;;;;;;;1.10;1.08;;;18.90;65.80;;;;;;4959404;28;20265;-67
2023/05/12 02:37:23;;;;;;;0.90;0.90;;;18.80;65.70;;;;;;4991168;28;20267;-67
2023/05/12 02:39:49;;;;;;;0.90;0.90;;;18.90;65.80;;;;;;4975055;28;20221;-67
2023/05/12 02:42:15;;;;;;;0.95;0.95;;;18.80;65.70;;;;;;4958948;28;20186;-66
2023/05/12 02:44:41;;;;;;;1.08;1.08;;;18.80;65.70;;;;;;4958779;28;20216;-67
2023/05/12 02:47:06;;;;;;;0.75;0.75;;;18.90;65.80;;;;;;4958758;28;20204;-67
2023/05/12 02:49:32;;;;;;;1.13;1.02;;;18.90;65.80;;;;;;4958778;28;20193;-67
2023/05/12 02:51:58;;;;;;;1.00;1.00;;;18.90;65.80;;;;;;4942881;28;20189;-67
2023/05/12 02:54:24;;;;;;;1.23;1.13;;;18.80;65.70;;;;;;4958413;28;20213;-68
2023/05/12 02:56:50;;;;;;;1.08;1.00;;;18.80;65.70;;;;;;4941332;28;20681;-66
2023/05/12 02:59:15;;;;;;;0.75;0.75;;;18.90;65.80;;;;;;4958389;28;20197;-67
2023/05/12 03:01:41;;;;;;;0.98;0.98;;;18.90;65.70;;;;;;4958231;28;20209;-67
2023/05/12 03:04:07;;;;;;;0.82;0.82;;;18.80;65.70;;;;;;4958226;28;20565;-67
2023/05/12 03:06:33;;;;;;;0.98;0.98;;;18.90;65.80;;;;;;4975394;28;20228;-67
2023/05/12 03:08:59;;;;;;;0.85;0.85;;;18.80;65.70;;;;;;4958219;28;20200;-67
2023/05/12 03:11:25;;;;;;;0.95;0.95;;;18.80;65.70;;;;;;4958013;28;20209;-67
2023/05/12 03:13:51;;;;;;;1.10;1.00;;;18.80;65.70;;;;;;4957997;28;20204;-67
2023/05/12 03:16:17;;;;;;;1.10;1.00;;;18.80;65.70;;;;;;4957954;28;20622;-67
2023/05/12 03:18:43;;;;;;;1.10;1.00;;;18.80;65.70;;;;;;4942090;28;20185;-67
2023/05/12 03:21:10;;;;;;;0.85;0.85;;;18.80;66.40;;;;;;4958193;28;20213;-67
2023/05/12 03:23:36;;;;;;;1.10;1.10;;;18.80;65.70;;;;;;4973896;28;20213;-66
2023/05/12 03:26:02;;;;;;;1.17;0.98;;;18.80;65.60;;;;;;4957625;28;20229;-68
2023/05/12 03:28:28;;;;;;;1.17;1.10;;;18.80;65.70;;;;;;4958053;28;20197;-67
2023/05/12 03:30:54;;;;;;;1.17;1.08;;;18.80;65.70;;;;;;4957665;28;20189;-67
2023/05/12 03:33:20;;;;;;;1.20;1.10;;;18.80;65.60;;;;;;4957704;28;20198;-67
2023/05/12 03:35:46;;;;;;;1.00;1.00;;;18.80;65.70;;;;;;4957556;28;20224;-67
2023/05/12 03:38:12;;;;;;;0.90;0.90;;;18.80;65.70;;;;;;4957768;28;20181;-67
2023/05/12 03:40:37;;;;;;;1.20;1.10;;;18.80;65.70;;;;;;4957022;28;20193;-67
2023/05/12 03:43:03;;;;;;;1.17;1.08;;;18.80;65.70;;;;;;4957845;28;20658;-67
2023/05/12 03:45:29;;;;;;;1.20;1.10;;;18.80;65.70;;;;;;4957180;28;20221;-66
2023/05/12 03:47:55;;;;;;;1.10;1.10;;;18.80;65.70;;;;;;4973818;28;20193;-67
2023/05/12 03:50:21;;;;;;;1.00;1.00;;;18.80;65.70;;;;;;4957416;28;20568;-67
2023/05/12 03:52:47;;;;;;;1.30;1.20;;;18.80;65.70;;;;;;4973659;28;20210;-67
2023/05/12 03:55:13;;;;;;;1.25;1.15;;;18.80;65.70;;;;;;4941479;28;20221;-66
2023/05/12 03:57:38;;;;;;;1.85;1.67;;;18.80;65.70;;;;;;4957461;28;20193;-67
2023/05/12 04:00:05;;;;;;;1.60;1.50;;;18.80;65.70;;;;;;4973357;28;20264;-67
2023/05/12 04:02:38;;;;;;;1.20;1.20;;;18.80;65.70;;;;;;4958746;28;20193;-68
2023/05/12 04:05:07;;;;;;;1.35;1.25;;;18.80;65.60;;;;;;4972938;28;20260;-67
2023/05/12 04:07:33;;;;;;;1.08;1.08;;;18.80;65.70;;;;;;4941169;28;20198;-67
2023/05/12 04:09:59;;;;;;;1.25;1.25;;;18.80;65.70;;;;;;4956964;28;20200;-68
2023/05/12 04:12:25;;;;;;;1.40;1.30;;;18.80;65.60;;;;;;4940951;28;20190;-67
2023/05/12 04:14:50;;;;;;;1.08;1.08;;;18.80;65.60;;;;;;4957154;28;20236;-67
2023/05/12 04:17:18;;;;;;;1.10;1.10;;;18.80;65.70;;;;;;4941777;28;20189;-67
2023/05/12 04:19:45;;;;;;;1.15;1.05;;;18.80;65.70;;;;;;4957431;28;20235;-67
2023/05/12 04:22:11;;;;;;;0.95;0.95;;;18.80;65.70;;;;;;4969812;28;20187;-67
2023/05/12 04:24:39;;;;;;;1.13;1.05;;;18.80;65.70;;;;;;4984608;28;20268;-66
2023/05/12 04:27:06;;;;;;;1.05;0.95;;;18.80;65.70;;;;;;4940806;28;20186;-67
2023/05/12 04:29:32;;;;;;;0.95;0.95;;;18.80;65.70;;;;;;4940863;28;20192;-67
2023/05/12 04:31:58;;;;;;;1.35;1.30;;;18.80;65.70;;;;;;4956755;28;20277;-66
2023/05/12 04:34:25;;;;;;;0.90;0.90;;;18.80;65.70;;;;;;4956719;28;20785;-67
2023/05/12 04:36:51;;;;;;;0.93;0.93;;;18.80;65.70;;;;;;4989036;28;20194;-67
2023/05/12 04:39:18;;;;;;;0.80;0.80;;;18.80;65.60;;;;;;4972488;28;20189;-67
2023/05/12 04:41:43;;;;;;;1.02;1.02;;;18.80;65.70;;;;;;4956533;28;20280;-67
2023/05/12 04:44:09;;;;;;;1.30;1.20;;;18.80;65.70;;;;;;4972835;28;20277;-67
2023/05/12 04:46:35;;;;;;;1.20;1.10;;;18.80;65.70;;;;;;4956299;28;20209;-68
2023/05/12 04:49:01;;;;;;;1.25;1.15;;;18.80;65.70;;;;;;4940186;28;20563;-67
2023/05/12 04:51:26;;;;;;;1.20;1.10;;;18.80;65.70;;;;;;4956524;28;20208;-67
2023/05/12 04:53:52;;;;;;;1.40;1.30;;;18.80;65.70;;;;;;4940540;28;20200;-67
2023/05/12 04:56:18;;;;;;;1.17;1.17;;;18.80;65.60;;;;;;4956138;28;20220;-67
2023/05/12 04:58:44;;;;;;;1.35;1.02;;;18.80;65.70;;;;;;4956264;28;20186;-67
2023/05/12 05:01:12;;;;;;;0.88;0.88;;;18.80;65.70;;;;;;4956254;28;20192;-66
2023/05/12 05:03:39;;;;;;;1.30;1.08;;;18.80;65.70;;;;;;4956354;28;20276;-67
2023/05/12 05:06:05;;;;;;;1.23;1.13;;;18.80;65.70;;;;;;4956308;28;20205;-67
2023/05/12 05:08:31;;;;;;;1.17;1.10;;;18.80;65.70;;;;;;4956441;28;20219;-66
2023/05/12 05:10:57;;;;;;;1.00;1.00;;;18.80;65.70;;;;;;4956194;28;20196;-67
2023/05/12 05:13:24;;;;;;;1.10;1.05;;;18.80;65.60;;;;;;4988472;28;20182;-68
2023/05/12 05:15:52;;;;;;;1.10;1.10;;;18.80;65.60;;;;;;4969155;28;20264;-68
2023/05/12 05:18:19;;;;;;;1.00;1.00;;;18.80;65.70;;;;;;4956147;28;20688;-68
2023/05/12 05:20:45;;;;;;;1.15;1.15;;;18.80;65.70;;;;;;4956426;28;20194;-67
2023/05/12 05:23:11;;;;;;;1.00;1.00;;;18.80;65.70;;;;;;4940083;28;20182;-68
2023/05/12 05:25:38;;;;;;;2.00;1.20;;;18.80;65.70;;;;;;4956111;28;20209;-66
2023/05/12 05:28:04;;;;;;;1.10;1.00;;;18.80;65.70;;;;;;4955994;28;20216;-67
2023/05/12 05:30:30;;;;;;;0.95;0.95;;;18.80;65.70;;;;;;4956333;28;20200;-68
2023/05/12 05:32:56;;;;;;;1.20;1.10;;;18.80;65.60;;;;;;4940237;28;20185;-67
2023/05/12 05:35:22;;;;;;;1.10;1.10;;;18.80;65.70;;;;;;4955652;28;20217;-66
2023/05/12 05:37:52;;;;;;;1.05;1.05;;;18.80;65.70;;;;;;4988131;28;20189;-67
2023/05/12 05:40:18;;;;;;;1.20;1.10;;;18.80;65.60;;;;;;4956210;28;20241;-67
2023/05/12 05:42:44;;;;;;;1.30;1.10;;;18.90;65.70;;;;;;4956039;28;20185;-67
2023/05/12 05:45:11;;;;;;;1.00;1.00;;;18.80;65.60;;;;;;4939938;28;20224;-66
2023/05/12 05:47:38;;;;;;;1.70;1.17;;;18.80;65.70;;;;;;4956164;28;20657;-67
2023/05/12 05:50:05;;;;;;;0.90;0.90;;;18.80;65.60;;;;;;4955888;28;20189;-67
2023/05/12 05:52:34;;;;;;;0.93;0.93;;;18.80;65.70;;;;;;4955755;28;20296;-67
2023/05/12 05:55:01;;;;;;;1.17;1.10;;;18.80;66.40;;;;;;4955328;28;20767;-66
2023/05/12 05:57:28;;;;;;;1.00;1.00;;;18.90;65.80;;;;;;4955358;28;20186;-67
2023/05/12 05:59:55;;;;;;;1.20;1.10;;;18.80;65.70;;;;;;4955511;28;20272;-67
2023/05/12 06:02:22;;;;;;;1.10;1.10;;;18.90;65.70;;;;;;4955701;28;20314;-67
2023/05/12 06:04:48;;;;;;;1.30;1.20;;;18.80;65.70;;;;;;4958466;28;20276;-67
2023/05/12 06:07:14;;;;;;;1.27;1.10;;;18.80;65.70;;;;;;4976413;28;20181;-67
2023/05/12 06:09:41;;;;;;;1.50;1.40;;;18.80;65.70;;;;;;4959348;28;20194;-67
2023/05/12 06:12:07;;;;;;;1.02;1.00;;;18.90;65.80;;;;;;4959462;28;20185;-67
2023/05/12 06:14:33;;;;;;;1.05;1.05;;;18.90;65.70;;;;;;4943209;28;20213;-67
2023/05/12 06:16:59;;;;;;;1.20;1.10;;;18.90;65.80;;;;;;4975375;28;20194;-67
2023/05/12 06:19:25;;;;;;;0.95;0.95;;;18.90;65.80;;;;;;4959458;28;20190;-68
2023/05/12 06:21:51;;;;;;;1.05;1.05;;;18.90;65.70;;;;;;4959037;28;20207;-68
2023/05/12 06:24:17;;;;;;;1.00;1.00;;;18.90;65.70;;;;;;4983675;28;20193;-67
2023/05/12 06:26:43;;;;;;;1.00;1.00;;;18.90;65.70;;;;;;4971806;28;20243;-66
2023/05/12 06:29:09;;;;;;;1.00;1.00;;;18.90;65.70;;;;;;4959200;28;20201;-68
2023/05/12 06:31:34;;;;;;;0.80;0.80;;;18.90;65.70;;;;;;4959251;28;20651;-67
2023/05/12 06:34:01;;;;;;;1.10;1.10;;;18.90;65.70;;;;;;4943058;28;20201;-67
2023/05/12 06:36:28;;;;;;;1.20;1.10;;;18.90;65.60;;;;;;4990910;28;20628;-67
2023/05/12 06:38:55;;;;;;;1.02;1.02;;;18.90;65.60;;;;;;4958365;28;20174;-67
2023/05/12 06:41:23;;;;;;;0.90;0.90;;;18.90;65.80;;;;;;4959254;28;20656;-66
2023/05/12 06:43:50;;;;;;;0.70;0.70;;;18.90;65.70;;;;;;4958893;28;20181;-67
2023/05/12 06:46:17;;;;;;;0.63;0.63;;;18.90;65.70;;;;;;4958911;28;20217;-67
2023/05/12 06:48:42;;;;;;;0.70;0.70;;;18.90;65.70;;;;;;4976130;28;20196;-66
2023/05/12 06:51:08;;;;;;;1.02;0.75;;;18.90;65.60;;;;;;4958968;28;20186;-67
2023/05/12 06:53:36;;;;;;;0.75;0.75;;;18.90;65.70;;;;;;4958618;28;20197;-67
2023/05/12 06:56:06;;;;;;;1.00;0.90;;;18.90;65.60;;;;;;4958205;28;20225;-67
2023/05/12 06:58:32;;;;;;;1.00;1.00;;;18.90;65.60;;;;;;4942928;28;20292;-66
2023/05/12 07:00:58;;;;;;;0.75;0.75;;;18.90;65.60;;;;;;4958823;28;20268;-67
2023/05/12 07:03:23;;;;;;;0.80;0.80;;;18.90;65.60;;;;;;4958615;28;20181;-67
2023/05/12 07:05:50;;;;;;;1.00;0.90;;;18.90;65.60;;;;;;4958254;28;20221;-67
2023/05/12 07:08:16;;;;;;;0.95;0.70;;;18.90;65.60;;;;;;4958750;28;20201;-67
2023/05/12 07:10:41;;;;;;;0.93;0.90;;;18.90;65.70;;;;;;4957988;28;20212;-67
2023/05/12 07:13:07;;;;;;;0.73;0.70;;;18.90;65.50;;;;;;4958021;28;20197;-67
2023/05/12 07:15:33;;;;;;;0.80;0.80;;;18.90;65.60;;;;;;4973990;28;20229;-66
2023/05/12 07:17:59;;;;;;;1.08;0.85;;;18.90;65.50;;;;;;4942657;28;20189;-67
2023/05/12 07:20:25;;;;;;;0.90;0.90;;;18.90;65.50;;;;;;4958163;28;20189;-67
2023/05/12 07:22:53;;;;;;;1.50;1.13;;;18.90;65.40;;;;;;4975405;28;20208;-66
2023/05/12 07:25:20;;;;;;;0.90;0.90;;;18.90;65.40;;;;;;4975068;28;20206;-66
2023/05/12 07:27:46;;;;;;;0.90;0.90;;;19.00;65.40;;;;;;4957885;28;20194;-67
2023/05/12 07:30:12;;;;;;;1.02;1.02;;;19.00;65.40;;;;;;4957934;28;20197;-66
2023/05/12 07:32:37;;;;;;;0.82;0.82;;;19.00;65.30;;;;;;4958177;28;20197;-67
2023/05/12 07:35:04;;;;;;;1.30;0.90;;;19.00;65.30;;;;;;4957430;28;20217;-67
2023/05/12 07:37:29;;;;;;;0.90;0.90;;;19.00;65.30;;;;;;4957934;28;20182;-67
2023/05/12 07:39:55;;;;;;;1.10;1.00;;;19.00;65.30;;;;;;4973740;28;20232;-67
2023/05/12 07:42:21;;;;;;;0.88;0.88;;;19.00;65.30;;;;;;4957740;28;20189;-67
2023/05/12 07:44:47;;;;;;;0.90;0.90;;;19.00;65.30;;;;;;4973754;28;20218;-67
2023/05/12 07:47:13;;;;;;;0.73;0.73;;;19.00;65.20;;;;;;4957538;28;20201;-67
2023/05/12 07:49:39;;;;;;;0.95;0.90;;;19.00;65.40;;;;;;4958021;28;20189;-67
2023/05/12 07:52:05;;;;;;;0.90;0.90;;;19.00;65.30;;;;;;4957228;28;20204;-67
2023/05/12 07:54:31;;;;;;;1.20;1.10;;;19.00;65.30;;;;;;4941167;28;20245;-67
2023/05/12 07:56:57;;;;;;;1.13;1.08;;;19.00;65.30;;;;;;4957328;28;20189;-67
2023/05/12 07:59:22;;;;;;;1.05;0.95;;;19.00;65.40;;;;;;4957692;28;20201;-67
2023/05/12 08:01:48;;;;;;;0.88;0.88;;;19.00;65.50;;;;;;4957476;28;20194;-67
2023/05/12 08:04:14;;;;;;;0.85;0.80;;;19.00;65.30;;;;;;4957655;28;20197;-67
2023/05/12 08:06:40;;;;;;;1.27;1.17;;;19.00;65.30;;;;;;4941056;28;20210;-67
2023/05/12 08:09:05;;;;;;;1.05;0.95;;;19.00;65.30;;;;;;4957045;28;20220;-67
2023/05/12 08:11:31;;;;;;;1.08;1.00;;;19.00;65.30;;;;;;4957004;28;20216;-67
2023/05/12 08:13:57;;;;;;;1.05;0.90;;;19.00;65.20;;;;;;4957024;28;20256;-67
2023/05/12 08:16:23;;;;;;;0.75;0.75;;;19.00;65.30;;;;;;4957067;28;20229;-67
2023/05/12 08:18:48;;;;;;;1.00;1.00;;;19.00;65.20;;;;;;4973289;28;20197;-67
2023/05/12 08:21:14;;;;;;;0.80;0.73;;;19.00;65.20;;;;;;4981642;28;20193;-67
2023/05/12 08:23:40;;;;;;;1.30;0.88;;;19.00;65.30;;;;;;4973464;28;20563;-67
2023/05/12 08:26:05;;;;;;;0.98;0.98;;;19.00;65.20;;;;;;4979864;28;20213;-67
2023/05/12 08:28:31;;;;;;;1.60;0.88;;;19.00;65.30;;;;;;4942201;28;20206;-66
2023/05/12 08:30:57;;;;;;;1.35;1.10;;;19.00;65.30;;;;;;4941146;29;20205;-66
2023/05/12 08:33:24;;;;;;;1.60;1.10;;;19.00;65.30;;;;;;4986028;28;20241;-67
2023/05/12 08:35:50;;;;;;;2.78;0.98;;;19.00;65.30;;;;;;4937463;29;20609;-67
2023/05/12 08:38:16;;;;;;;0.90;0.90;;;19.00;65.30;;;;;;4937662;29;20198;-67
2023/05/12 08:40:56;;;;;;;1.00;1.00;;;19.00;65.30;;;;;;4954779;29;20182;-68
2023/05/12 08:43:25;;;;;;;1.00;1.00;;;19.00;65.30;;;;;;4972668;28;20178;-67
2023/05/12 08:45:58;;;;;;;1.02;1.00;;;19.00;65.30;;;;;;4956500;28;20445;-67
2023/05/12 08:48:28;;;;;;;1.13;1.05;;;19.00;65.30;;;;;;4937688;29;20261;-67
2023/05/12 08:50:54;;;;;;;1.38;1.10;;;19.00;65.30;;;;;;4971700;28;20190;-67
2023/05/12 08:53:21;;;;;;;1.30;0.90;;;19.00;65.30;;;;;;4956521;28;20277;-67
2023/05/12 08:55:48;;;;;;;1.10;1.00;;;19.00;65.30;;;;;;4969238;28;20232;-67
2023/05/12 08:58:14;;;;;;;0.98;0.98;;;19.00;65.30;;;;;;4963064;28;20200;-66
2023/05/12 09:00:41;;;;;;;1.08;0.98;;;19.00;65.40;;;;;;4955899;28;20224;-68
2023/05/12 09:03:07;;;;;;;1.00;1.00;;;19.00;65.40;;;;;;4988122;28;20189;-67
2023/05/12 09:05:33;;;;;;;1.20;1.10;;;19.00;65.40;;;;;;4956169;28;20361;-67
2023/05/12 09:08:00;;;;;;;1.02;0.93;;;19.00;65.40;;;;;;4956293;28;20194;-67
2023/05/12 09:10:27;;;;;;;0.75;0.75;;;19.00;65.40;;;;;;4956403;28;20185;-67
2023/05/12 09:13:16;;;;;;;0.80;0.80;;;19.00;65.40;;;;;;4956350;28;20680;-67
2023/05/12 09:15:46;;;;;;;1.13;1.02;;;19.00;65.40;;;;;;4956139;28;20236;-67
2023/05/12 09:18:11;;;;;;;1.52;1.20;;;19.00;65.40;;;;;;4956230;28;20208;-65
2023/05/12 09:20:37;;;;;;;1.27;1.00;;;19.00;65.40;;;;;;4956418;28;20648;-67
2023/05/12 09:23:18;;;;;;;1.30;1.20;;;19.00;65.40;;;;;;4956246;28;20185;-67
2023/05/12 09:25:48;;;;;;;1.00;1.00;;;19.00;65.40;;;;;;4988314;28;20213;-67
2023/05/12 09:28:14;;;;;;;1.20;1.10;;;19.00;65.40;;;;;;4956477;28;20241;-67
2023/05/12 09:30:41;;;;;;;1.20;1.10;;;19.00;65.40;;;;;;4973425;28;20190;-67
2023/05/12 09:33:12;;;;;;;1.25;1.15;;;19.00;65.40;;;;;;4956215;28;20677;-67
2023/05/12 09:35:43;;;;;;;1.33;1.20;;;19.00;65.40;;;;;;4968451;28;20218;-67
2023/05/12 09:38:11;;;;;;;1.15;1.15;;;19.00;65.30;;;;;;4945647;28;20178;-67
2023/05/12 09:40:38;;;;;;;1.10;1.10;;;19.00;65.30;;;;;;4960032;28;20181;-67
2023/05/12 09:43:07;;;;;;;1.20;1.10;;;19.00;65.30;;;;;;4959969;28;20181;-67
2023/05/12 09:45:35;;;;;;;1.95;1.40;;;19.10;65.40;;;;;;4975715;28;20217;-66
2023/05/12 09:48:12;;;;;;;1.40;1.00;;;19.10;65.40;;;;;;4959908;28;20278;-67
2023/05/12 09:50:47;;;;;;;1.20;1.10;;;19.10;65.40;;;;;;4959806;28;20182;-67
2023/05/12 09:53:16;;;;;;;1.27;1.00;;;19.10;65.40;;;;;;4960123;28;20196;-67
2023/05/12 09:55:48;;;;;;;2.03;1.40;;;19.10;65.30;;;;;;4959566;28;20221;-67
2023/05/12 09:58:17;;;;;;;1.05;1.05;;;19.10;65.30;;;;;;4959732;28;20186;-67
2023/05/12 10:00:44;;;;;;;1.30;1.20;;;19.10;65.40;;;;;;4943632;28;20178;-67
2023/05/12 10:03:17;;;;;;;1.10;1.00;;;19.10;65.40;;;;;;4972663;28;20194;-67
2023/05/12 10:06:15;;;;;;;1.30;1.20;;;19.10;65.30;;;;;;4940343;29;20210;-67
2023/05/12 10:08:47;;;;;;;1.13;1.02;;;19.10;65.30;;;;;;4936786;29;20202;-67
2023/05/12 10:11:14;;;;;;;1.27;1.17;;;19.10;65.40;;;;;;4981632;28;20185;-67
2023/05/12 10:13:40;;;;;;;1.27;1.17;;;19.10;65.40;;;;;;4959471;28;20178;-67
2023/05/12 10:16:07;;;;;;;1.02;1.02;;;19.10;65.40;;;;;;4991328;28;20693;-67
2023/05/12 10:18:33;;;;;;;1.05;0.95;;;19.10;65.40;;;;;;4959732;28;20232;-67
2023/05/12 10:21:00;;;;;;;1.08;0.88;;;19.10;65.40;;;;;;4975244;28;20276;-66
2023/05/12 10:23:27;;;;;;;1.00;1.00;;;19.10;65.40;;;;;;4976587;28;20181;-67
2023/05/12 10:26:00;;;;;;;1.38;1.27;;;19.10;65.50;;;;;;4975505;28;20213;-67
2023/05/12 10:28:28;;;;;;;1.23;1.13;;;19.10;65.40;;;;;;4943243;28;20189;-66
2023/05/12 10:30:56;;;;;;;0.95;0.95;;;19.10;65.40;;;;;;4991353;28;20272;-67
2023/05/12 10:33:22;;;;;;;1.40;1.00;;;19.10;65.50;;;;;;4991410;28;20260;-68
2023/05/12 10:35:49;;;;;;;0.98;0.98;;;19.10;65.50;;;;;;4958829;28;20225;-68
2023/05/12 10:38:18;;;;;;;0.98;0.95;;;19.10;65.60;;;;;;4942982;28;20204;-67
2023/05/12 10:41:03;;;;;;;1.05;1.05;;;19.10;65.50;;;;;;4958336;28;20281;-67
2023/05/12 10:43:43;;;;;;;1.30;1.20;;;19.10;65.50;;;;;;4943194;28;20189;-66
2023/05/12 10:46:20;;;;;;;1.65;0.95;;;19.10;65.50;;;;;;4982808;28;20232;-67
2023/05/12 10:48:58;;;;;;;0.90;0.90;;;19.10;65.60;;;;;;4947402;28;20272;-67
2023/05/12 10:51:32;;;;;;;1.02;0.90;;;19.10;65.50;;;;;;4953030;28;20185;-67
2023/05/12 10:54:04;;;;;;;1.98;1.20;;;19.10;65.50;;;;;;4934961;28;20202;-67
2023/05/12 10:56:43;;;;;;;1.00;1.00;;;19.10;65.50;;;;;;4946369;28;20677;-66
2023/05/12 10:59:17;;;;;;;1.52;1.10;;;19.10;65.50;;;;;;4946013;28;20268;-67
2023/05/12 11:01:59;;;;;;;1.10;1.05;;;19.10;65.50;;;;;;4959321;28;20281;-67
2023/05/12 11:04:57;;;;;;;1.17;0.95;;;19.00;65.50;;;;;;4942444;28;20740;-67
2023/05/12 11:07:26;;;;;;;1.13;1.10;;;19.10;65.60;;;;;;4958665;28;20202;-67
2023/05/12 11:09:54;;;;;;;1.60;1.13;;;19.10;65.60;;;;;;4958610;28;20284;-67
2023/05/12 11:12:20;;;;;;;1.23;0.90;;;19.10;65.60;;;;;;4974480;28;20189;-67
2023/05/12 11:14:46;;;;;;;1.02;1.00;;;19.10;65.60;;;;;;4958236;28;20320;-67
2023/05/12 11:17:14;;;;;;;1.20;1.10;;;19.10;65.60;;;;;;4958185;28;20197;-66
2023/05/12 11:19:46;;;;;;;1.00;0.90;;;19.10;65.60;;;;;;4962244;28;20268;-67
2023/05/12 11:22:15;;;;;;;1.02;1.00;;;19.10;65.60;;;;;;4960952;28;20248;-67
2023/05/12 11:24:41;;;;;;;1.00;0.90;;;19.10;65.60;;;;;;4958417;28;20592;-67
2023/05/12 11:27:13;;;;;;;1.50;1.00;;;19.10;65.60;;;;;;4958030;28;20232;-67
2023/05/12 11:29:40;;;;;;;1.20;1.10;;;19.10;65.50;;;;;;4955907;28;20202;-66
2023/05/12 11:32:09;;;;;;;1.60;1.10;;;19.10;65.50;;;;;;4971869;28;20696;-66
2023/05/12 11:34:35;;;;;;;0.90;0.90;;;19.10;65.60;;;;;;4982230;28;20218;-67
2023/05/12 11:37:03;;;;;;;0.80;0.75;;;19.10;65.60;;;;;;4975442;28;20189;-67
2023/05/12 11:39:33;;;;;;;1.33;1.20;;;19.10;65.50;;;;;;4958105;28;20583;-65
2023/05/12 11:42:04;;;;;;;1.20;1.10;;;19.10;66.10;;;;;;4941964;28;20667;-66
2023/05/12 11:44:30;;;;;;;1.40;1.00;;;19.10;65.60;;;;;;4957780;28;20190;-67
2023/05/12 11:47:03;;;;;;;1.13;1.00;;;19.10;65.50;;;;;;4974453;28;20197;-67
2023/05/12 11:49:30;;;;;;;1.50;0.90;;;19.10;65.50;;;;;;4965706;28;20324;-67
2023/05/12 11:52:01;;;;;;;1.10;1.02;;;19.10;66.40;;;;;;4974174;28;20192;-67
2023/05/12 11:54:29;;;;;;;1.15;1.00;;;19.10;65.60;;;;;;4957478;28;20237;-66
2023/05/12 11:56:56;;;;;;;0.80;0.80;;;19.10;65.60;;;;;;4957404;28;20204;-67
2023/05/12 11:59:34;;;;;;;0.80;0.80;;;19.10;65.50;;;;;;4957499;28;20300;-67
2023/05/12 12:02:03;;;;;;;0.88;0.80;;;19.20;65.70;;;;;;4956918;28;20189;-66
2023/05/12 12:04:40;;;;;;;1.02;0.93;;;19.10;65.60;;;;;;4957538;28;20292;-66
2023/05/12 12:07:09;;;;;;;1.00;1.00;;;19.20;65.60;;;;;;4941190;28;20198;-68
2023/05/12 12:09:40;;;;;;;1.40;1.00;;;19.10;65.40;;;;;;4941496;28;20196;-67
2023/05/12 12:12:09;;;;;;;1.13;1.02;;;19.20;65.60;;;;;;4957266;28;20205;-66
2023/05/12 12:14:40;;;;;;;1.00;1.00;;;19.20;65.50;;;;;;4957005;28;20296;-66
2023/05/12 12:17:06;;;;;;;1.02;0.95;;;19.20;65.50;;;;;;4957100;28;20196;-67
2023/05/12 12:19:31;;;;;;;0.75;0.75;;;19.20;65.40;;;;;;4948894;28;20193;-67
2023/05/12 12:21:57;;;;;;;1.65;0.88;;;19.20;65.60;;;;;;4941140;28;20197;-66
2023/05/12 12:24:24;;;;;;;0.80;0.80;;;19.20;65.70;;;;;;4956969;28;20544;-65
2023/05/12 12:26:50;;;;;;;0.90;0.90;;;19.20;66.40;;;;;;4961143;28;20200;-67
2023/05/12 12:29:17;;;;;;;1.00;1.00;;;19.20;65.50;;;;;;4973039;28;20227;-67
2023/05/12 12:31:43;;;;;;;0.80;0.80;;;19.20;65.50;;;;;;4956700;28;20205;-67
2023/05/12 12:34:09;;;;;;;1.25;0.90;;;19.20;65.50;;;;;;4956675;28;20236;-67
2023/05/12 12:36:35;;;;;;;1.00;0.90;;;19.20;65.50;;;;;;4956728;28;20206;-67
2023/05/12 12:39:01;;;;;;;1.02;1.00;;;19.20;65.60;;;;;;4956813;28;20185;-66
2023/05/12 12:41:27;;;;;;;1.77;0.88;;;19.20;65.60;;;;;;4956922;28;20204;-67
2023/05/12 12:43:53;;;;;;;1.25;0.98;;;19.20;65.70;;;;;;4956406;28;20182;-67
2023/05/12 12:46:19;;;;;;;1.35;0.90;;;19.20;65.60;;;;;;4956243;28;20239;-66
2023/05/12 12:48:45;;;;;;;0.70;0.70;;;19.20;65.60;;;;;;4981741;28;20221;-66